sensor_id;sensor_type;location;lat;lon;timestamp;pressure;altitude;pressure_sealevel;temperature;humidity
15529;BME280;7866;52.280;9.500;2023-04-07T00:01:22;100344.47;;;4.78;64.64
15529;BME280;7866;52.280;9.500;2023-04-07T00:06:25;100335.91;;;4.75;64.07
15529;BME280;7866;52.280;9.500;2023-04-07T00:11:26;100341.25;;;4.54;65.60
15529;BME280;7866;52.280;9.500;2023-04-07T00:16:28;100332.13;;;4.67;66.75
15529;BME280;7866;52.280;9.500;2023-04-07T00:21:31;100325.81;;;4.89;65.23
15529;BME280;7866;52.280;9.500;2023-04-07T00:26:32;100319.00;;;4.97;64.96
15529;BME280;7866;52.280;9.500;2023-04-07T00:31:34;100321.69;;;5.06;63.98
15529;BME280;7866;52.280;9.500;2023-04-07T00:36:37;100323.38;;;5.07;63.66
15529;BME280;7866;52.280;9.500;2023-04-07T00:41:39;100330.63;;;5.05;63.24
15529;BME280;7866;52.280;9.500;2023-04-07T00:46:40;100331.44;;;4.96;63.50
15529;BME280;7866;52.280;9.500;2023-04-07T00:51:43;100328.69;;;4.77;63.05
15529;BME280;7866;52.280;9.500;2023-04-07T00:56:46;100333.22;;;4.65;64.00
15529;BME280;7866;52.280;9.500;2023-04-07T01:01:54;100324.25;;;4.56;64.50
15529;BME280;7866;52.280;9.500;2023-04-07T01:07:05;100326.78;;;4.37;65.96
15529;BME280;7866;52.280;9.500;2023-04-07T01:12:12;100330.31;;;4.26;65.50
15529;BME280;7866;52.280;9.500;2023-04-07T01:17:18;100316.31;;;4.35;66.50
15529;BME280;7866;52.280;9.500;2023-04-07T01:22:25;100334.34;;;4.41;65.51
15529;BME280;7866;52.280;9.500;2023-04-07T01:27:35;100326.72;;;4.27;66.21
15529;BME280;7866;52.280;9.500;2023-04-07T01:32:40;100319.28;;;4.21;66.71
15529;BME280;7866;52.280;9.500;2023-04-07T01:37:44;100314.72;;;4.23;66.89
15529;BME280;7866;52.280;9.500;2023-04-07T01:42:48;100316.31;;;4.35;66.38
15529;BME280;7866;52.280;9.500;2023-04-07T01:47:52;100324.19;;;4.26;67.22
15529;BME280;7866;52.280;9.500;2023-04-07T01:52:55;100321.69;;;4.24;68.45
15529;BME280;7866;52.280;9.500;2023-04-07T01:57:57;100321.47;;;4.16;67.26
15529;BME280;7866;52.280;9.500;2023-04-07T02:03:10;100328.00;;;4.12;66.67
15529;BME280;7866;52.280;9.500;2023-04-07T02:08:20;100327.06;;;3.81;68.71
15529;BME280;7866;52.280;9.500;2023-04-07T02:13:23;100323.88;;;3.87;68.46
15529;BME280;7866;52.280;9.500;2023-04-07T02:18:29;100322.59;;;3.81;68.74
15529;BME280;7866;52.280;9.500;2023-04-07T02:23:34;100318.69;;;3.64;68.99
15529;BME280;7866;52.280;9.500;2023-04-07T02:28:35;100317.34;;;3.59;68.36
15529;BME280;7866;52.280;9.500;2023-04-07T02:33:38;100316.19;;;3.52;69.01
15529;BME280;7866;52.280;9.500;2023-04-07T02:38:40;100311.56;;;3.65;69.65
15529;BME280;7866;52.280;9.500;2023-04-07T02:43:41;100321.16;;;3.77;70.20
15529;BME280;7866;52.280;9.500;2023-04-07T02:48:44;100324.09;;;3.63;69.32
15529;BME280;7866;52.280;9.500;2023-04-07T02:53:46;100330.50;;;3.60;68.67
15529;BME280;7866;52.280;9.500;2023-04-07T02:58:48;100326.19;;;3.48;68.72
15529;BME280;7866;52.280;9.500;2023-04-07T03:03:50;100323.31;;;3.40;68.34
15529;BME280;7866;52.280;9.500;2023-04-07T03:08:52;100324.03;;;3.31;69.40
15529;BME280;7866;52.280;9.500;2023-04-07T03:13:54;100318.41;;;3.24;69.00
15529;BME280;7866;52.280;9.500;2023-04-07T03:18:57;100318.53;;;3.22;69.60
15529;BME280;7866;52.280;9.500;2023-04-07T03:23:58;100316.16;;;3.08;69.63
15529;BME280;7866;52.280;9.500;2023-04-07T03:29:00;100309.53;;;3.03;70.44
15529;BME280;7866;52.280;9.500;2023-04-07T03:34:03;100301.25;;;3.07;70.79
15529;BME280;7866;52.280;9.500;2023-04-07T03:39:05;100322.50;;;3.06;70.27
15529;BME280;7866;52.280;9.500;2023-04-07T03:44:07;100315.66;;;3.03;70.07
15529;BME280;7866;52.280;9.500;2023-04-07T03:49:10;100313.28;;;3.00;70.31
15529;BME280;7866;52.280;9.500;2023-04-07T03:54:11;100318.56;;;3.00;70.12
15529;BME280;7866;52.280;9.500;2023-04-07T03:59:13;100320.00;;;3.15;71.75
15529;BME280;7866;52.280;9.500;2023-04-07T04:04:16;100323.78;;;3.45;69.36
15529;BME280;7866;52.280;9.500;2023-04-07T04:09:18;100335.22;;;3.34;68.49
15529;BME280;7866;52.280;9.500;2023-04-07T04:14:20;100339.97;;;3.19;68.49
15529;BME280;7866;52.280;9.500;2023-04-07T04:19:23;100342.47;;;3.21;69.41
15529;BME280;7866;52.280;9.500;2023-04-07T04:24:25;100342.34;;;3.22;69.17
15529;BME280;7866;52.280;9.500;2023-04-07T04:29:27;100351.97;;;3.24;68.78
15529;BME280;7866;52.280;9.500;2023-04-07T04:34:29;100356.53;;;3.33;67.69
15529;BME280;7866;52.280;9.500;2023-04-07T04:39:31;100360.03;;;3.11;68.17
15529;BME280;7866;52.280;9.500;2023-04-07T04:44:33;100359.19;;;2.99;69.67
15529;BME280;7866;52.280;9.500;2023-04-07T04:49:35;100368.56;;;3.03;68.86
15529;BME280;7866;52.280;9.500;2023-04-07T04:54:37;100368.94;;;2.99;68.89
15529;BME280;7866;52.280;9.500;2023-04-07T04:59:39;100372.91;;;2.93;69.57
15529;BME280;7866;52.280;9.500;2023-04-07T05:04:43;100371.47;;;3.00;70.85
15529;BME280;7866;52.280;9.500;2023-04-07T05:09:44;100381.94;;;3.24;69.43
15529;BME280;7866;52.280;9.500;2023-04-07T05:14:46;100385.41;;;3.25;68.98
15529;BME280;7866;52.280;9.500;2023-04-07T05:19:49;100387.09;;;3.37;68.76
15529;BME280;7866;52.280;9.500;2023-04-07T05:24:50;100392.25;;;3.50;68.71
15529;BME280;7866;52.280;9.500;2023-04-07T05:29:52;100388.28;;;3.55;68.13
15529;BME280;7866;52.280;9.500;2023-04-07T05:34:55;100392.63;;;3.45;67.63
15529;BME280;7866;52.280;9.500;2023-04-07T05:39:57;100394.44;;;3.33;68.66
15529;BME280;7866;52.280;9.500;2023-04-07T05:44:58;100394.28;;;3.35;68.75
15529;BME280;7866;52.280;9.500;2023-04-07T05:50:01;100395.03;;;3.48;69.19
15529;BME280;7866;52.280;9.500;2023-04-07T05:55:03;100403.81;;;3.60;68.68
15529;BME280;7866;52.280;9.500;2023-04-07T06:00:07;100406.44;;;3.71;68.65
15529;BME280;7866;52.280;9.500;2023-04-07T06:05:10;100412.28;;;3.86;68.11
15529;BME280;7866;52.280;9.500;2023-04-07T06:10:11;100416.94;;;4.05;67.74
15529;BME280;7866;52.280;9.500;2023-04-07T06:15:13;100421.84;;;4.41;67.20
15529;BME280;7866;52.280;9.500;2023-04-07T06:20:16;100409.94;;;5.29;64.58
15529;BME280;7866;52.280;9.500;2023-04-07T06:25:19;100417.22;;;5.67;64.54
15529;BME280;7866;52.280;9.500;2023-04-07T06:30:21;100416.72;;;5.93;62.19
15529;BME280;7866;52.280;9.500;2023-04-07T06:35:24;100428.78;;;6.26;61.12
15529;BME280;7866;52.280;9.500;2023-04-07T06:40:26;100434.38;;;6.13;61.15
15529;BME280;7866;52.280;9.500;2023-04-07T06:45:28;100437.19;;;6.80;59.16
15529;BME280;7866;52.280;9.500;2023-04-07T06:50:31;100427.63;;;6.97;58.39
15529;BME280;7866;52.280;9.500;2023-04-07T06:55:33;100435.38;;;6.80;59.41
15529;BME280;7866;52.280;9.500;2023-04-07T07:00:34;100449.47;;;7.00;58.91
15529;BME280;7866;52.280;9.500;2023-04-07T07:05:37;100447.44;;;6.75;60.42
15529;BME280;7866;52.280;9.500;2023-04-07T07:10:39;100458.91;;;6.95;60.03
15529;BME280;7866;52.280;9.500;2023-04-07T07:15:40;100458.91;;;6.75;59.87
15529;BME280;7866;52.280;9.500;2023-04-07T07:20:43;100466.63;;;6.59;60.49
15529;BME280;7866;52.280;9.500;2023-04-07T07:25:45;100471.94;;;6.88;60.26
15529;BME280;7866;52.280;9.500;2023-04-07T07:30:47;100482.97;;;7.03;60.35
15529;BME280;7866;52.280;9.500;2023-04-07T07:35:50;100476.44;;;7.72;58.17
15529;BME280;7866;52.280;9.500;2023-04-07T07:40:51;100479.00;;;7.16;58.17
15529;BME280;7866;52.280;9.500;2023-04-07T07:45:53;100478.56;;;7.96;56.68
15529;BME280;7866;52.280;9.500;2023-04-07T07:50:56;100481.81;;;8.62;55.42
15529;BME280;7866;52.280;9.500;2023-04-07T07:55:58;100477.09;;;8.38;54.90
15529;BME280;7866;52.280;9.500;2023-04-07T08:01:00;100478.94;;;8.28;55.83
15529;BME280;7866;52.280;9.500;2023-04-07T08:06:03;100482.88;;;8.06;55.79
15529;BME280;7866;52.280;9.500;2023-04-07T08:11:05;100490.81;;;8.16;57.09
15529;BME280;7866;52.280;9.500;2023-04-07T08:16:07;100484.34;;;8.19;57.65
15529;BME280;7866;52.280;9.500;2023-04-07T08:21:10;100484.38;;;7.54;59.67
15529;BME280;7866;52.280;9.500;2023-04-07T08:26:12;100500.72;;;7.69;58.81
15529;BME280;7866;52.280;9.500;2023-04-07T08:31:13;100506.34;;;8.48;56.05
15529;BME280;7866;52.280;9.500;2023-04-07T08:36:17;100518.34;;;8.80;54.74
15529;BME280;7866;52.280;9.500;2023-04-07T08:41:22;100509.94;;;8.75;53.98
15529;BME280;7866;52.280;9.500;2023-04-07T08:46:27;100511.75;;;8.92;53.08
15529;BME280;7866;52.280;9.500;2023-04-07T08:51:31;100510.22;;;8.89;53.97
15529;BME280;7866;52.280;9.500;2023-04-07T08:56:33;100518.41;;;9.32;53.51
15529;BME280;7866;52.280;9.500;2023-04-07T09:01:35;100512.56;;;9.54;52.53
15529;BME280;7866;52.280;9.500;2023-04-07T09:06:38;100516.47;;;9.68;52.02
15529;BME280;7866;52.280;9.500;2023-04-07T09:11:40;100524.03;;;9.81;51.27
15529;BME280;7866;52.280;9.500;2023-04-07T09:16:42;100526.88;;;10.14;50.76
15529;BME280;7866;52.280;9.500;2023-04-07T09:21:49;100524.63;;;10.35;50.44
15529;BME280;7866;52.280;9.500;2023-04-07T09:26:54;100527.28;;;10.27;50.22
15529;BME280;7866;52.280;9.500;2023-04-07T09:32:08;100523.88;;;10.83;49.40
15529;BME280;7866;52.280;9.500;2023-04-07T09:37:21;100524.88;;;10.74;49.13
15529;BME280;7866;52.280;9.500;2023-04-07T09:42:22;100522.22;;;11.07;48.36
15529;BME280;7866;52.280;9.500;2023-04-07T09:47:26;100526.19;;;11.35;47.95
15529;BME280;7866;52.280;9.500;2023-04-07T09:52:49;100522.00;;;11.49;46.57
15529;BME280;7866;52.280;9.500;2023-04-07T09:57:52;100516.38;;;11.92;46.80
15529;BME280;7866;52.280;9.500;2023-04-07T10:02:55;100523.41;;;11.93;44.90
15529;BME280;7866;52.280;9.500;2023-04-07T10:07:59;100518.06;;;12.24;45.53
15529;BME280;7866;52.280;9.500;2023-04-07T10:13:03;100509.88;;;12.48;45.11
15529;BME280;7866;52.280;9.500;2023-04-07T10:18:06;100501.56;;;12.89;43.31
15529;BME280;7866;52.280;9.500;2023-04-07T10:23:15;100509.06;;;12.71;41.77
15529;BME280;7866;52.280;9.500;2023-04-07T10:28:20;100514.31;;;12.41;42.37
15529;BME280;7866;52.280;9.500;2023-04-07T10:33:43;100519.63;;;12.72;39.96
15529;BME280;7866;52.280;9.500;2023-04-07T10:39:19;100521.19;;;12.90;39.81
15529;BME280;7866;52.280;9.500;2023-04-07T10:44:46;100526.59;;;13.04;41.23
15529;BME280;7866;52.280;9.500;2023-04-07T10:50:15;100520.84;;;12.70;42.15
15529;BME280;7866;52.280;9.500;2023-04-07T10:55:33;100518.19;;;12.85;42.12
15529;BME280;7866;52.280;9.500;2023-04-07T11:00:35;100528.47;;;13.04;42.15
15529;BME280;7866;52.280;9.500;2023-04-07T11:05:36;100532.19;;;12.57;40.65
15529;BME280;7866;52.280;9.500;2023-04-07T11:10:46;100530.91;;;12.68;39.80
15529;BME280;7866;52.280;9.500;2023-04-07T11:15:49;100528.31;;;12.82;41.65
15529;BME280;7866;52.280;9.500;2023-04-07T11:20:52;100525.72;;;12.66;40.50
15529;BME280;7866;52.280;9.500;2023-04-07T11:26:00;100536.22;;;13.22;40.95
15529;BME280;7866;52.280;9.500;2023-04-07T11:31:03;100528.47;;;13.04;40.32
15529;BME280;7866;52.280;9.500;2023-04-07T11:36:05;100538.53;;;13.48;40.09
15529;BME280;7866;52.280;9.500;2023-04-07T11:41:13;100540.69;;;13.67;40.10
15529;BME280;7866;52.280;9.500;2023-04-07T11:46:17;100538.75;;;13.23;40.15
15529;BME280;7866;52.280;9.500;2023-04-07T11:51:21;100537.50;;;13.34;40.88
15529;BME280;7866;52.280;9.500;2023-04-07T11:56:25;100538.03;;;13.29;40.20
15529;BME280;7866;52.280;9.500;2023-04-07T12:01:38;100537.13;;;13.37;40.05
15529;BME280;7866;52.280;9.500;2023-04-07T12:06:41;100543.53;;;13.51;40.64
15529;BME280;7866;52.280;9.500;2023-04-07T12:11:49;100558.34;;;13.70;38.35
15529;BME280;7866;52.280;9.500;2023-04-07T12:16:50;100547.94;;;13.67;39.72
15529;BME280;7866;52.280;9.500;2023-04-07T12:21:55;100542.50;;;13.37;39.64
15529;BME280;7866;52.280;9.500;2023-04-07T12:26:58;100541.91;;;13.79;39.57
15529;BME280;7866;52.280;9.500;2023-04-07T12:32:00;100540.50;;;13.84;39.56
15529;BME280;7866;52.280;9.500;2023-04-07T12:37:02;100546.09;;;13.82;39.72
15529;BME280;7866;52.280;9.500;2023-04-07T12:42:05;100540.16;;;14.01;39.71
15529;BME280;7866;52.280;9.500;2023-04-07T12:47:07;100553.75;;;13.55;39.48
15529;BME280;7866;52.280;9.500;2023-04-07T12:52:11;100548.50;;;14.07;39.10
15529;BME280;7866;52.280;9.500;2023-04-07T12:57:14;100541.25;;;14.22;39.28
15529;BME280;7866;52.280;9.500;2023-04-07T13:02:16;100542.28;;;13.76;39.35
15529;BME280;7866;52.280;9.500;2023-04-07T13:07:18;100537.78;;;14.28;39.09
15529;BME280;7866;52.280;9.500;2023-04-07T13:12:22;100536.72;;;14.59;39.04
15529;BME280;7866;52.280;9.500;2023-04-07T13:17:25;100540.66;;;14.99;38.35
15529;BME280;7866;52.280;9.500;2023-04-07T13:22:28;100530.25;;;14.53;37.97
15529;BME280;7866;52.280;9.500;2023-04-07T13:27:31;100536.09;;;14.99;37.81
15529;BME280;7866;52.280;9.500;2023-04-07T13:32:33;100528.41;;;14.96;38.19
15529;BME280;7866;52.280;9.500;2023-04-07T13:37:34;100532.25;;;14.87;38.14
15529;BME280;7866;52.280;9.500;2023-04-07T13:42:37;100534.06;;;15.01;37.26
15529;BME280;7866;52.280;9.500;2023-04-07T13:47:39;100534.03;;;15.23;37.67
15529;BME280;7866;52.280;9.500;2023-04-07T13:52:41;100542.81;;;14.67;37.87
15529;BME280;7866;52.280;9.500;2023-04-07T13:57:44;100540.34;;;14.87;38.29
15529;BME280;7866;52.280;9.500;2023-04-07T14:02:46;100540.22;;;14.74;37.50
15529;BME280;7866;52.280;9.500;2023-04-07T14:07:48;100538.06;;;15.34;36.28
15529;BME280;7866;52.280;9.500;2023-04-07T14:12:52;100537.66;;;15.09;36.63
15529;BME280;7866;52.280;9.500;2023-04-07T14:17:53;100536.97;;;14.64;38.37
15529;BME280;7866;52.280;9.500;2023-04-07T14:22:55;100538.59;;;14.58;37.73
15529;BME280;7866;52.280;9.500;2023-04-07T14:27:58;100534.94;;;14.87;36.71
15529;BME280;7866;52.280;9.500;2023-04-07T14:33:00;100535.44;;;15.19;37.22
15529;BME280;7866;52.280;9.500;2023-04-07T14:38:01;100537.84;;;14.86;36.41
15529;BME280;7866;52.280;9.500;2023-04-07T14:43:04;100529.41;;;14.95;36.13
15529;BME280;7866;52.280;9.500;2023-04-07T14:48:07;100536.56;;;14.82;37.37
15529;BME280;7866;52.280;9.500;2023-04-07T14:53:09;100545.91;;;13.98;37.11
15529;BME280;7866;52.280;9.500;2023-04-07T14:58:12;100544.13;;;14.20;37.66
15529;BME280;7866;52.280;9.500;2023-04-07T15:03:14;100549.69;;;14.04;38.10
15529;BME280;7866;52.280;9.500;2023-04-07T15:08:16;100546.81;;;14.71;37.34
15529;BME280;7866;52.280;9.500;2023-04-07T15:13:19;100550.34;;;14.72;37.36
15529;BME280;7866;52.280;9.500;2023-04-07T15:18:20;100547.41;;;14.88;36.78
15529;BME280;7866;52.280;9.500;2023-04-07T15:23:22;100542.78;;;14.46;37.07
15529;BME280;7866;52.280;9.500;2023-04-07T15:28:25;100548.34;;;14.59;36.92
15529;BME280;7866;52.280;9.500;2023-04-07T15:33:27;100542.69;;;14.54;36.87
15529;BME280;7866;52.280;9.500;2023-04-07T15:38:28;100550.25;;;14.29;36.78
15529;BME280;7866;52.280;9.500;2023-04-07T15:43:31;100555.44;;;14.30;36.92
15529;BME280;7866;52.280;9.500;2023-04-07T15:48:33;100540.41;;;14.07;37.21
15529;BME280;7866;52.280;9.500;2023-04-07T15:53:35;100554.78;;;13.84;36.91
15529;BME280;7866;52.280;9.500;2023-04-07T15:58:38;100565.66;;;13.61;37.26
15529;BME280;7866;52.280;9.500;2023-04-07T16:03:39;100570.22;;;13.61;37.23
15529;BME280;7866;52.280;9.500;2023-04-07T16:08:41;100574.00;;;13.66;37.64
15529;BME280;7866;52.280;9.500;2023-04-07T16:13:44;100567.13;;;13.64;36.90
15529;BME280;7866;52.280;9.500;2023-04-07T16:18:46;100572.22;;;13.59;37.29
15529;BME280;7866;52.280;9.500;2023-04-07T16:23:47;100576.19;;;13.33;37.34
15529;BME280;7866;52.280;9.500;2023-04-07T16:28:50;100581.06;;;13.29;37.26
15529;BME280;7866;52.280;9.500;2023-04-07T16:33:52;100584.69;;;13.14;37.39
15529;BME280;7866;52.280;9.500;2023-04-07T16:38:54;100585.66;;;13.21;38.00
15529;BME280;7866;52.280;9.500;2023-04-07T16:43:58;100592.28;;;13.10;37.66
15529;BME280;7866;52.280;9.500;2023-04-07T16:48:59;100588.44;;;13.04;37.87
15529;BME280;7866;52.280;9.500;2023-04-07T16:54:02;100598.47;;;12.88;38.07
15529;BME280;7866;52.280;9.500;2023-04-07T16:59:05;100603.06;;;12.79;38.24
15529;BME280;7866;52.280;9.500;2023-04-07T17:04:07;100602.00;;;12.65;37.97
15529;BME280;7866;52.280;9.500;2023-04-07T17:09:09;100612.06;;;12.63;38.42
15529;BME280;7866;52.280;9.500;2023-04-07T17:14:12;100630.59;;;12.50;38.65
15529;BME280;7866;52.280;9.500;2023-04-07T17:19:14;100629.09;;;12.47;39.21
15529;BME280;7866;52.280;9.500;2023-04-07T17:24:16;100641.53;;;12.40;39.62
15529;BME280;7866;52.280;9.500;2023-04-07T17:29:19;100642.63;;;12.23;39.76
15529;BME280;7866;52.280;9.500;2023-04-07T17:34:25;100647.00;;;12.07;40.36
15529;BME280;7866;52.280;9.500;2023-04-07T17:39:27;100656.13;;;11.90;40.33
15529;BME280;7866;52.280;9.500;2023-04-07T17:44:30;100659.94;;;11.79;41.01
15529;BME280;7866;52.280;9.500;2023-04-07T17:49:33;100665.66;;;11.52;41.62
15529;BME280;7866;52.280;9.500;2023-04-07T17:54:34;100678.53;;;11.24;42.35
15529;BME280;7866;52.280;9.500;2023-04-07T17:59:38;100682.75;;;10.76;43.65
15529;BME280;7866;52.280;9.500;2023-04-07T18:04:40;100686.03;;;10.53;45.02
15529;BME280;7866;52.280;9.500;2023-04-07T18:09:41;100701.84;;;10.39;44.98
15529;BME280;7866;52.280;9.500;2023-04-07T18:14:45;100713.25;;;10.23;45.05
15529;BME280;7866;52.280;9.500;2023-04-07T18:19:47;100724.09;;;10.39;44.91
15529;BME280;7866;52.280;9.500;2023-04-07T18:24:49;100725.78;;;10.40;45.18
15529;BME280;7866;52.280;9.500;2023-04-07T18:29:52;100726.78;;;10.21;45.23
15529;BME280;7866;52.280;9.500;2023-04-07T18:34:57;100746.47;;;10.12;45.40
15529;BME280;7866;52.280;9.500;2023-04-07T18:39:58;100751.53;;;9.97;46.28
15529;BME280;7866;52.280;9.500;2023-04-07T18:45:01;100763.81;;;9.82;46.30
15529;BME280;7866;52.280;9.500;2023-04-07T18:50:04;100773.44;;;9.75;46.25
15529;BME280;7866;52.280;9.500;2023-04-07T18:55:07;100775.47;;;9.45;47.33
15529;BME280;7866;52.280;9.500;2023-04-07T19:00:11;100786.06;;;9.09;48.36
15529;BME280;7866;52.280;9.500;2023-04-07T19:05:13;100796.56;;;9.21;47.96
15529;BME280;7866;52.280;9.500;2023-04-07T19:10:15;100806.84;;;8.98;48.65
15529;BME280;7866;52.280;9.500;2023-04-07T19:15:17;100800.63;;;8.97;48.70
15529;BME280;7866;52.280;9.500;2023-04-07T19:20:19;100812.81;;;8.82;48.99
15529;BME280;7866;52.280;9.500;2023-04-07T19:25:21;100822.25;;;8.67;49.39
15529;BME280;7866;52.280;9.500;2023-04-07T19:30:24;100829.03;;;8.51;49.77
15529;BME280;7866;52.280;9.500;2023-04-07T19:35:26;100828.31;;;8.59;49.50
15529;BME280;7866;52.280;9.500;2023-04-07T19:40:28;100839.16;;;8.48;49.37
15529;BME280;7866;52.280;9.500;2023-04-07T19:45:32;100837.91;;;8.42;49.61
15529;BME280;7866;52.280;9.500;2023-04-07T19:50:33;100841.25;;;8.05;51.20
15529;BME280;7866;52.280;9.500;2023-04-07T19:55:40;100848.81;;;7.81;52.09
15529;BME280;7866;52.280;9.500;2023-04-07T20:00:44;100849.50;;;7.63;52.98
15529;BME280;7866;52.280;9.500;2023-04-07T20:05:48;100858.03;;;7.48;52.95
15529;BME280;7866;52.280;9.500;2023-04-07T20:10:52;100864.56;;;7.34;53.62
15529;BME280;7866;52.280;9.500;2023-04-07T20:15:55;100867.53;;;7.40;52.83
15529;BME280;7866;52.280;9.500;2023-04-07T20:20:59;100871.09;;;7.51;52.97
15529;BME280;7866;52.280;9.500;2023-04-07T20:26:01;100873.56;;;7.33;53.33
15529;BME280;7866;52.280;9.500;2023-04-07T20:31:04;100885.44;;;7.29;53.28
15529;BME280;7866;52.280;9.500;2023-04-07T20:36:06;100880.78;;;7.11;54.03
15529;BME280;7866;52.280;9.500;2023-04-07T20:41:09;100882.13;;;7.06;54.79
15529;BME280;7866;52.280;9.500;2023-04-07T20:46:12;100889.63;;;7.22;54.68
15529;BME280;7866;52.280;9.500;2023-04-07T20:51:14;100887.69;;;7.24;54.27
15529;BME280;7866;52.280;9.500;2023-04-07T20:56:16;100891.84;;;7.16;54.78
15529;BME280;7866;52.280;9.500;2023-04-07T21:01:20;100889.63;;;7.22;54.11
15529;BME280;7866;52.280;9.500;2023-04-07T21:06:21;100898.94;;;7.37;54.11
15529;BME280;7866;52.280;9.500;2023-04-07T21:11:23;100903.25;;;7.28;54.98
15529;BME280;7866;52.280;9.500;2023-04-07T21:16:26;100909.56;;;7.27;55.52
15529;BME280;7866;52.280;9.500;2023-04-07T21:21:28;100914.66;;;7.40;56.69
15529;BME280;7866;52.280;9.500;2023-04-07T21:26:30;100907.50;;;7.40;57.43
15529;BME280;7866;52.280;9.500;2023-04-07T21:31:33;100914.81;;;7.38;59.67
15529;BME280;7866;52.280;9.500;2023-04-07T21:36:35;100915.66;;;7.39;62.25
15529;BME280;7866;52.280;9.500;2023-04-07T21:41:37;100915.91;;;7.36;62.97
15529;BME280;7866;52.280;9.500;2023-04-07T21:46:40;100922.94;;;7.37;64.06
15529;BME280;7866;52.280;9.500;2023-04-07T21:51:42;100921.69;;;7.41;64.54
15529;BME280;7866;52.280;9.500;2023-04-07T21:56:44;100927.91;;;7.51;64.19
15529;BME280;7866;52.280;9.500;2023-04-07T22:01:49;100928.81;;;7.31;67.74
15529;BME280;7866;52.280;9.500;2023-04-07T22:06:51;100937.50;;;7.33;68.75
15529;BME280;7866;52.280;9.500;2023-04-07T22:11:52;100932.16;;;7.33;68.83
15529;BME280;7866;52.280;9.500;2023-04-07T22:16:56;100926.81;;;7.23;69.37
15529;BME280;7866;52.280;9.500;2023-04-07T22:21:58;100932.53;;;7.19;71.10
15529;BME280;7866;52.280;9.500;2023-04-07T22:26:59;100932.53;;;7.19;70.98
15529;BME280;7866;52.280;9.500;2023-04-07T22:32:03;100929.38;;;7.04;72.35
15529;BME280;7866;52.280;9.500;2023-04-07T22:37:05;100934.84;;;7.02;73.09
15529;BME280;7866;52.280;9.500;2023-04-07T22:42:07;100937.22;;;7.05;73.16
15529;BME280;7866;52.280;9.500;2023-04-07T22:47:10;100933.53;;;6.97;72.95
15529;BME280;7866;52.280;9.500;2023-04-07T22:52:11;100933.91;;;7.13;72.08
15529;BME280;7866;52.280;9.500;2023-04-07T22:57:13;100942.13;;;7.10;72.62
15529;BME280;7866;52.280;9.500;2023-04-07T23:02:16;100944.81;;;7.10;70.54
15529;BME280;7866;52.280;9.500;2023-04-07T23:07:17;100946.63;;;7.09;71.63
15529;BME280;7866;52.280;9.500;2023-04-07T23:12:19;100950.66;;;7.04;73.08
15529;BME280;7866;52.280;9.500;2023-04-07T23:17:22;100953.78;;;7.09;72.47
15529;BME280;7866;52.280;9.500;2023-04-07T23:22:24;100959.06;;;6.99;73.57
15529;BME280;7866;52.280;9.500;2023-04-07T23:27:26;100961.47;;;7.02;72.85
15529;BME280;7866;52.280;9.500;2023-04-07T23:32:29;100959.66;;;7.03;73.84
15529;BME280;7866;52.280;9.500;2023-04-07T23:37:30;100961.47;;;7.02;74.00
15529;BME280;7866;52.280;9.500;2023-04-07T23:42:32;100951.69;;;7.12;72.52
15529;BME280;7866;52.280;9.500;2023-04-07T23:47:35;100952.06;;;6.98;72.99
15529;BME280;7866;52.280;9.500;2023-04-07T23:52:37;100952.31;;;6.95;73.64
15529;BME280;7866;52.280;9.500;2023-04-07T23:57:38;100962.22;;;6.93;74.78
